sensor_id;sensor_type;location;lat;lon;timestamp;noise_LAeq;noise_LA_min;noise_LA_max;noise_LA01;noise_LA95
64545;Laerm;50936;51.660;5.616;2023-04-25T00:00:15;47.79;39.46;65.41;;
64545;Laerm;50936;51.660;5.616;2023-04-25T00:02:42;43.49;40.53;51.03;;
64545;Laerm;50936;51.660;5.616;2023-04-25T00:05:09;42.21;39.34;52.33;;
64545;Laerm;50936;51.660;5.616;2023-04-25T00:07:38;44.42;39.21;55.50;;
64545;Laerm;50936;51.660;5.616;2023-04-25T00:10:06;49.77;39.46;70.04;;
64545;Laerm;50936;51.660;5.616;2023-04-25T00:12:33;52.53;41.06;68.69;;
64545;Laerm;50936;51.660;5.616;2023-04-25T00:15:00;46.33;39.70;61.07;;
64545;Laerm;50936;51.660;5.616;2023-04-25T00:17:27;42.57;38.52;45.91;;
64545;Laerm;50936;51.660;5.616;2023-04-25T00:19:54;42.53;39.34;56.09;;
64545;Laerm;50936;51.660;5.616;2023-04-25T00:22:21;50.56;39.34;65.32;;
64545;Laerm;50936;51.660;5.616;2023-04-25T00:24:48;48.27;39.70;66.17;;
64545;Laerm;50936;51.660;5.616;2023-04-25T00:27:15;42.24;39.58;48.16;;
64545;Laerm;50936;51.660;5.616;2023-04-25T00:29:42;42.64;37.88;52.39;;
64545;Laerm;50936;51.660;5.616;2023-04-25T00:32:09;42.81;40.03;51.67;;
64545;Laerm;50936;51.660;5.616;2023-04-25T00:34:36;49.72;39.81;64.29;;
64545;Laerm;50936;51.660;5.616;2023-04-25T00:37:03;48.27;39.46;61.58;;
64545;Laerm;50936;51.660;5.616;2023-04-25T00:39:30;45.01;39.21;58.66;;
64545;Laerm;50936;51.660;5.616;2023-04-25T00:41:58;42.90;39.70;50.75;;
64545;Laerm;50936;51.660;5.616;2023-04-25T00:44:27;42.48;39.46;58.85;;
64545;Laerm;50936;51.660;5.616;2023-04-25T00:46:54;42.25;39.58;51.62;;
64545;Laerm;50936;51.660;5.616;2023-04-25T00:49:21;42.42;38.67;51.65;;
64545;Laerm;50936;51.660;5.616;2023-04-25T00:51:48;42.48;40.23;46.33;;
64545;Laerm;50936;51.660;5.616;2023-04-25T00:54:16;46.67;40.23;64.04;;
64545;Laerm;50936;51.660;5.616;2023-04-25T00:56:44;42.97;40.03;50.23;;
64545;Laerm;50936;51.660;5.616;2023-04-25T00:59:13;42.21;39.70;45.99;;
64545;Laerm;50936;51.660;5.616;2023-04-25T01:01:41;44.13;39.34;56.65;;
64545;Laerm;50936;51.660;5.616;2023-04-25T01:04:09;42.24;39.46;49.79;;
64545;Laerm;50936;51.660;5.616;2023-04-25T01:06:37;43.64;40.43;52.50;;
64545;Laerm;50936;51.660;5.616;2023-04-25T01:09:04;42.34;39.81;52.36;;
64545;Laerm;50936;51.660;5.616;2023-04-25T01:11:32;42.33;40.13;43.90;;
64545;Laerm;50936;51.660;5.616;2023-04-25T01:13:59;42.23;39.81;47.10;;
64545;Laerm;50936;51.660;5.616;2023-04-25T01:16:27;42.75;38.95;47.74;;
64545;Laerm;50936;51.660;5.616;2023-04-25T01:18:55;42.36;40.33;46.45;;
64545;Laerm;50936;51.660;5.616;2023-04-25T01:21:23;42.20;39.08;46.13;;
64545;Laerm;50936;51.660;5.616;2023-04-25T01:23:54;42.42;39.92;44.39;;
64545;Laerm;50936;51.660;5.616;2023-04-25T01:26:21;42.46;40.23;44.62;;
64545;Laerm;50936;51.660;5.616;2023-04-25T01:28:50;42.39;40.33;44.39;;
64545;Laerm;50936;51.660;5.616;2023-04-25T01:31:18;42.46;40.23;51.77;;
64545;Laerm;50936;51.660;5.616;2023-04-25T01:33:45;51.88;40.33;66.74;;
64545;Laerm;50936;51.660;5.616;2023-04-25T01:36:14;42.70;40.23;52.56;;
64545;Laerm;50936;51.660;5.616;2023-04-25T01:38:42;43.18;39.70;51.13;;
64545;Laerm;50936;51.660;5.616;2023-04-25T01:41:10;42.34;40.13;50.02;;
64545;Laerm;50936;51.660;5.616;2023-04-25T01:43:39;46.47;39.58;61.82;;
64545;Laerm;50936;51.660;5.616;2023-04-25T01:46:06;42.56;40.33;46.52;;
64545;Laerm;50936;51.660;5.616;2023-04-25T01:48:33;42.61;39.92;45.30;;
64545;Laerm;50936;51.660;5.616;2023-04-25T01:51:00;43.06;40.23;51.08;;
64545;Laerm;50936;51.660;5.616;2023-04-25T01:53:28;44.24;39.92;58.18;;
64545;Laerm;50936;51.660;5.616;2023-04-25T01:55:56;42.29;39.58;45.75;;
64545;Laerm;50936;51.660;5.616;2023-04-25T01:58:25;42.75;40.71;46.62;;
64545;Laerm;50936;51.660;5.616;2023-04-25T02:01:01;44.90;40.23;55.20;;
64545;Laerm;50936;51.660;5.616;2023-04-25T02:03:37;45.05;40.53;57.15;;
64545;Laerm;50936;51.660;5.616;2023-04-25T02:06:09;44.29;40.33;56.82;;
64545;Laerm;50936;51.660;5.616;2023-04-25T02:08:40;51.74;39.81;68.87;;
64545;Laerm;50936;51.660;5.616;2023-04-25T02:11:07;52.28;40.71;69.44;;
64545;Laerm;50936;51.660;5.616;2023-04-25T02:13:43;44.03;39.92;54.45;;
64545;Laerm;50936;51.660;5.616;2023-04-25T02:16:36;44.32;40.71;54.79;;
64545;Laerm;50936;51.660;5.616;2023-04-25T02:19:06;52.08;41.30;73.93;;
64545;Laerm;50936;51.660;5.616;2023-04-25T02:21:35;45.13;40.53;72.18;;
64545;Laerm;50936;51.660;5.616;2023-04-25T02:24:04;50.84;40.33;66.49;;
64545;Laerm;50936;51.660;5.616;2023-04-25T02:26:33;44.59;40.62;58.10;;
64545;Laerm;50936;51.660;5.616;2023-04-25T02:29:00;43.08;39.70;56.76;;
64545;Laerm;50936;51.660;5.616;2023-04-25T02:31:27;49.20;40.63;65.32;;
64545;Laerm;50936;51.660;5.616;2023-04-25T02:33:57;43.04;40.71;48.25;;
64545;Laerm;50936;51.660;5.616;2023-04-25T02:36:23;44.32;40.89;52.62;;
64545;Laerm;50936;51.660;5.616;2023-04-25T02:38:50;42.97;40.80;44.94;;
64545;Laerm;50936;51.660;5.616;2023-04-25T02:41:20;43.61;40.89;62.85;;
64545;Laerm;50936;51.660;5.616;2023-04-25T02:43:47;49.66;40.33;62.87;;
64545;Laerm;50936;51.660;5.616;2023-04-25T02:46:17;42.97;40.89;49.32;;
64545;Laerm;50936;51.660;5.616;2023-04-25T02:48:59;51.85;40.89;70.72;;
64545;Laerm;50936;51.660;5.616;2023-04-25T02:51:25;47.88;40.62;58.13;;
64545;Laerm;50936;51.660;5.616;2023-04-25T02:53:53;44.01;40.53;53.15;;
64545;Laerm;50936;51.660;5.616;2023-04-25T02:56:19;54.97;40.62;74.07;;
64545;Laerm;50936;51.660;5.616;2023-04-25T02:58:46;44.26;40.71;52.59;;
64545;Laerm;50936;51.660;5.616;2023-04-25T03:01:13;63.85;41.75;78.77;;
64545;Laerm;50936;51.660;5.616;2023-04-25T03:03:40;49.33;41.14;64.21;;
64545;Laerm;50936;51.660;5.616;2023-04-25T03:06:07;45.22;41.75;54.07;;
64545;Laerm;50936;51.660;5.616;2023-04-25T03:08:34;44.21;41.68;52.44;;
64545;Laerm;50936;51.660;5.616;2023-04-25T03:11:01;51.20;42.22;78.21;;
64545;Laerm;50936;51.660;5.616;2023-04-25T03:13:29;46.75;42.22;54.59;;
64545;Laerm;50936;51.660;5.616;2023-04-25T03:15:57;54.04;42.35;71.38;;
64545;Laerm;50936;51.660;5.616;2023-04-25T03:18:25;45.99;41.96;54.40;;
64545;Laerm;50936;51.660;5.616;2023-04-25T03:20:54;52.06;42.29;68.54;;
64545;Laerm;50936;51.660;5.616;2023-04-25T03:23:21;56.04;43.09;71.94;;
64545;Laerm;50936;51.660;5.616;2023-04-25T03:25:49;48.31;42.35;69.18;;
64545;Laerm;50936;51.660;5.616;2023-04-25T03:28:16;55.28;42.82;68.76;;
64545;Laerm;50936;51.660;5.616;2023-04-25T03:30:43;57.13;42.71;71.30;;
64545;Laerm;50936;51.660;5.616;2023-04-25T03:33:10;56.66;42.41;72.64;;
64545;Laerm;50936;51.660;5.616;2023-04-25T03:35:37;54.33;42.88;71.18;;
64545;Laerm;50936;51.660;5.616;2023-04-25T03:38:04;48.84;42.82;60.97;;
64545;Laerm;50936;51.660;5.616;2023-04-25T03:40:36;47.38;43.29;53.70;;
64545;Laerm;50936;51.660;5.616;2023-04-25T03:43:12;54.50;43.44;67.11;;
64545;Laerm;50936;51.660;5.616;2023-04-25T03:45:45;54.64;43.63;72.03;;
64545;Laerm;50936;51.660;5.616;2023-04-25T03:48:13;51.36;42.82;65.98;;
64545;Laerm;50936;51.660;5.616;2023-04-25T03:50:40;54.84;43.24;68.08;;
64545;Laerm;50936;51.660;5.616;2023-04-25T03:53:07;50.68;42.98;64.78;;
64545;Laerm;50936;51.660;5.616;2023-04-25T03:55:54;54.49;43.77;77.02;;
64545;Laerm;50936;51.660;5.616;2023-04-25T03:58:21;49.64;43.49;59.78;;
64545;Laerm;50936;51.660;5.616;2023-04-25T04:00:49;52.85;44.23;66.17;;
64545;Laerm;50936;51.660;5.616;2023-04-25T04:03:18;51.96;43.77;60.51;;
64545;Laerm;50936;51.660;5.616;2023-04-25T04:05:46;54.33;43.94;69.88;;
64545;Laerm;50936;51.660;5.616;2023-04-25T04:08:13;59.46;44.69;70.92;;
64545;Laerm;50936;51.660;5.616;2023-04-25T04:10:41;52.68;45.14;72.17;;
64545;Laerm;50936;51.660;5.616;2023-04-25T04:13:08;51.63;43.49;65.97;;
64545;Laerm;50936;51.660;5.616;2023-04-25T04:15:35;56.99;44.23;72.48;;
64545;Laerm;50936;51.660;5.616;2023-04-25T04:18:03;57.80;44.19;70.64;;
64545;Laerm;50936;51.660;5.616;2023-04-25T04:20:30;56.57;43.86;67.76;;
64545;Laerm;50936;51.660;5.616;2023-04-25T04:22:57;58.00;44.11;74.53;;
64545;Laerm;50936;51.660;5.616;2023-04-25T04:25:24;56.91;45.30;69.72;;
64545;Laerm;50936;51.660;5.616;2023-04-25T04:28:03;55.97;44.58;74.26;;
64545;Laerm;50936;51.660;5.616;2023-04-25T04:30:42;60.00;45.86;75.53;;
64545;Laerm;50936;51.660;5.616;2023-04-25T04:33:13;59.90;45.86;73.16;;
64545;Laerm;50936;51.660;5.616;2023-04-25T04:35:43;62.99;47.81;76.36;;
64545;Laerm;50936;51.660;5.616;2023-04-25T04:38:11;59.60;45.23;83.59;;
64545;Laerm;50936;51.660;5.616;2023-04-25T04:40:38;64.11;46.35;81.53;;
64545;Laerm;50936;51.660;5.616;2023-04-25T04:43:14;57.32;46.05;68.78;;
64545;Laerm;50936;51.660;5.616;2023-04-25T04:46:06;59.72;45.83;70.69;;
64545;Laerm;50936;51.660;5.616;2023-04-25T04:48:53;59.02;46.64;70.71;;
64545;Laerm;50936;51.660;5.616;2023-04-25T04:51:41;59.44;48.98;70.11;;
64545;Laerm;50936;51.660;5.616;2023-04-25T04:54:34;59.88;45.66;72.72;;
64545;Laerm;50936;51.660;5.616;2023-04-25T04:57:21;61.75;49.29;70.97;;
64545;Laerm;50936;51.660;5.616;2023-04-25T05:00:12;58.04;45.60;70.10;;
64545;Laerm;50936;51.660;5.616;2023-04-25T05:02:58;59.52;44.35;82.58;;
64545;Laerm;50936;51.660;5.616;2023-04-25T05:05:30;60.60;45.60;72.26;;
64545;Laerm;50936;51.660;5.616;2023-04-25T05:08:15;57.80;47.14;68.82;;
64545;Laerm;50936;51.660;5.616;2023-04-25T05:11:08;61.16;48.52;76.79;;
64545;Laerm;50936;51.660;5.616;2023-04-25T05:13:53;59.86;46.23;70.81;;
64545;Laerm;50936;51.660;5.616;2023-04-25T05:16:39;55.57;45.01;67.71;;
64545;Laerm;50936;51.660;5.616;2023-04-25T05:19:41;61.06;49.60;71.25;;
64545;Laerm;50936;51.660;5.616;2023-04-25T05:22:31;60.02;46.87;76.00;;
64545;Laerm;50936;51.660;5.616;2023-04-25T05:25:21;62.75;49.50;73.81;;
64545;Laerm;50936;51.660;5.616;2023-04-25T05:28:12;59.95;45.17;70.35;;
64545;Laerm;50936;51.660;5.616;2023-04-25T05:30:57;59.02;47.22;69.52;;
64545;Laerm;50936;51.660;5.616;2023-04-25T05:33:30;62.30;48.08;75.42;;
64545;Laerm;50936;51.660;5.616;2023-04-25T05:35:58;61.22;47.20;73.35;;
64545;Laerm;50936;51.660;5.616;2023-04-25T05:38:25;61.05;46.48;77.52;;
64545;Laerm;50936;51.660;5.616;2023-04-25T05:41:11;62.84;49.52;78.72;;
64545;Laerm;50936;51.660;5.616;2023-04-25T05:43:42;63.83;49.40;75.56;;
64545;Laerm;50936;51.660;5.616;2023-04-25T05:46:24;62.96;55.19;71.75;;
64545;Laerm;50936;51.660;5.616;2023-04-25T05:49:08;65.95;57.11;78.13;;
64545;Laerm;50936;51.660;5.616;2023-04-25T05:51:56;63.01;57.70;74.67;;
64545;Laerm;50936;51.660;5.616;2023-04-25T05:54:40;62.97;50.31;78.81;;
64545;Laerm;50936;51.660;5.616;2023-04-25T05:57:07;62.02;48.54;73.70;;
64545;Laerm;50936;51.660;5.616;2023-04-25T05:59:34;61.48;49.35;76.81;;
64545;Laerm;50936;51.660;5.616;2023-04-25T06:02:02;61.53;48.90;79.99;;
64545;Laerm;50936;51.660;5.616;2023-04-25T06:04:32;60.95;49.78;70.79;;
64545;Laerm;50936;51.660;5.616;2023-04-25T06:07:00;60.98;49.95;74.00;;
64545;Laerm;50936;51.660;5.616;2023-04-25T06:09:27;61.69;50.03;70.29;;
64545;Laerm;50936;51.660;5.616;2023-04-25T06:11:54;60.83;51.03;69.68;;
64545;Laerm;50936;51.660;5.616;2023-04-25T06:14:21;58.09;48.28;70.65;;
64545;Laerm;50936;51.660;5.616;2023-04-25T06:16:49;60.90;51.36;69.42;;
64545;Laerm;50936;51.660;5.616;2023-04-25T06:19:16;60.32;50.59;71.33;;
64545;Laerm;50936;51.660;5.616;2023-04-25T06:21:44;60.68;48.51;71.66;;
64545;Laerm;50936;51.660;5.616;2023-04-25T06:24:11;63.24;49.93;74.64;;
64545;Laerm;50936;51.660;5.616;2023-04-25T06:26:38;64.07;49.55;79.55;;
64545;Laerm;50936;51.660;5.616;2023-04-25T06:29:05;61.79;49.63;79.12;;
64545;Laerm;50936;51.660;5.616;2023-04-25T06:31:32;61.68;50.49;72.30;;
64545;Laerm;50936;51.660;5.616;2023-04-25T06:34:00;63.35;51.62;72.39;;
64545;Laerm;50936;51.660;5.616;2023-04-25T06:36:29;63.92;53.11;81.75;;
64545;Laerm;50936;51.660;5.616;2023-04-25T06:39:03;63.44;48.29;79.33;;
64545;Laerm;50936;51.660;5.616;2023-04-25T06:41:32;60.72;49.27;70.40;;
64545;Laerm;50936;51.660;5.616;2023-04-25T06:44:01;63.68;48.42;75.20;;
64545;Laerm;50936;51.660;5.616;2023-04-25T06:46:49;65.08;49.35;82.77;;
64545;Laerm;50936;51.660;5.616;2023-04-25T06:49:16;61.96;48.95;72.84;;
64545;Laerm;50936;51.660;5.616;2023-04-25T06:51:44;60.80;50.87;76.91;;
64545;Laerm;50936;51.660;5.616;2023-04-25T06:54:11;64.70;52.14;82.17;;
64545;Laerm;50936;51.660;5.616;2023-04-25T06:56:50;62.05;54.43;79.48;;
64545;Laerm;50936;51.660;5.616;2023-04-25T06:59:17;62.30;55.03;73.59;;
64545;Laerm;50936;51.660;5.616;2023-04-25T07:01:45;63.61;55.77;77.54;;
64545;Laerm;50936;51.660;5.616;2023-04-25T07:04:23;64.47;55.89;77.44;;
64545;Laerm;50936;51.660;5.616;2023-04-25T07:06:54;61.99;50.64;74.41;;
64545;Laerm;50936;51.660;5.616;2023-04-25T07:09:36;64.29;51.50;80.67;;
64545;Laerm;50936;51.660;5.616;2023-04-25T07:12:04;61.37;50.75;70.96;;
64545;Laerm;50936;51.660;5.616;2023-04-25T07:14:32;64.33;50.55;79.70;;
64545;Laerm;50936;51.660;5.616;2023-04-25T07:17:00;60.96;51.57;71.16;;
64545;Laerm;50936;51.660;5.616;2023-04-25T07:19:29;61.68;49.83;75.97;;
64545;Laerm;50936;51.660;5.616;2023-04-25T07:21:59;62.69;53.05;79.34;;
64545;Laerm;50936;51.660;5.616;2023-04-25T07:24:27;62.64;50.15;70.96;;
64545;Laerm;50936;51.660;5.616;2023-04-25T07:26:55;63.02;52.38;79.48;;
64545;Laerm;50936;51.660;5.616;2023-04-25T07:29:32;63.60;54.11;79.05;;
64545;Laerm;50936;51.660;5.616;2023-04-25T07:31:59;60.54;51.06;69.15;;
64545;Laerm;50936;51.660;5.616;2023-04-25T07:34:26;60.93;50.46;76.27;;
64545;Laerm;50936;51.660;5.616;2023-04-25T07:36:53;63.07;49.30;75.75;;
64545;Laerm;50936;51.660;5.616;2023-04-25T07:39:22;63.80;53.25;70.33;;
64545;Laerm;50936;51.660;5.616;2023-04-25T07:41:50;66.10;52.32;83.35;;
64545;Laerm;50936;51.660;5.616;2023-04-25T07:44:24;62.43;50.42;76.78;;
64545;Laerm;50936;51.660;5.616;2023-04-25T07:46:52;61.33;50.98;71.43;;
64545;Laerm;50936;51.660;5.616;2023-04-25T07:49:19;63.58;55.41;77.04;;
64545;Laerm;50936;51.660;5.616;2023-04-25T07:51:47;63.38;55.30;77.59;;
64545;Laerm;50936;51.660;5.616;2023-04-25T07:54:17;65.19;54.82;78.79;;
64545;Laerm;50936;51.660;5.616;2023-04-25T07:56:49;64.19;51.44;78.79;;
64545;Laerm;50936;51.660;5.616;2023-04-25T07:59:23;64.60;51.82;81.77;;
64545;Laerm;50936;51.660;5.616;2023-04-25T08:01:50;63.49;51.71;76.89;;
64545;Laerm;50936;51.660;5.616;2023-04-25T08:04:19;63.00;50.92;79.97;;
64545;Laerm;50936;51.660;5.616;2023-04-25T08:06:54;65.82;56.61;77.05;;
64545;Laerm;50936;51.660;5.616;2023-04-25T08:09:30;64.63;53.32;75.69;;
64545;Laerm;50936;51.660;5.616;2023-04-25T08:12:04;63.27;55.53;76.18;;
64545;Laerm;50936;51.660;5.616;2023-04-25T08:14:32;62.34;51.45;77.86;;
64545;Laerm;50936;51.660;5.616;2023-04-25T08:17:04;64.15;55.01;78.42;;
64545;Laerm;50936;51.660;5.616;2023-04-25T08:19:33;66.34;57.79;74.73;;
64545;Laerm;50936;51.660;5.616;2023-04-25T08:22:01;65.62;53.40;78.71;;
64545;Laerm;50936;51.660;5.616;2023-04-25T08:24:38;66.07;56.62;75.60;;
64545;Laerm;50936;51.660;5.616;2023-04-25T08:27:07;64.73;52.23;75.69;;
64545;Laerm;50936;51.660;5.616;2023-04-25T08:29:36;70.72;56.90;83.45;;
64545;Laerm;50936;51.660;5.616;2023-04-25T08:32:03;71.45;55.22;82.94;;
64545;Laerm;50936;51.660;5.616;2023-04-25T08:34:32;63.96;54.24;79.80;;
64545;Laerm;50936;51.660;5.616;2023-04-25T08:37:02;62.50;49.64;74.43;;
64545;Laerm;50936;51.660;5.616;2023-04-25T08:39:47;64.80;52.37;75.14;;
64545;Laerm;50936;51.660;5.616;2023-04-25T08:42:37;63.45;52.02;82.26;;
64545;Laerm;50936;51.660;5.616;2023-04-25T08:45:05;61.13;50.52;70.33;;
64545;Laerm;50936;51.660;5.616;2023-04-25T08:47:38;62.44;52.36;70.69;;
64545;Laerm;50936;51.660;5.616;2023-04-25T08:50:07;65.05;54.19;84.08;;
64545;Laerm;50936;51.660;5.616;2023-04-25T08:52:44;63.36;53.44;78.55;;
64545;Laerm;50936;51.660;5.616;2023-04-25T08:55:14;62.99;51.38;76.68;;
64545;Laerm;50936;51.660;5.616;2023-04-25T08:57:42;62.61;52.62;75.68;;
64545;Laerm;50936;51.660;5.616;2023-04-25T09:00:11;64.14;54.23;75.13;;
64545;Laerm;50936;51.660;5.616;2023-04-25T09:02:42;62.62;53.77;76.30;;
64545;Laerm;50936;51.660;5.616;2023-04-25T09:05:13;63.88;56.26;79.40;;
64545;Laerm;50936;51.660;5.616;2023-04-25T09:07:41;62.01;49.69;73.49;;
64545;Laerm;50936;51.660;5.616;2023-04-25T09:10:09;63.70;52.62;79.33;;
64545;Laerm;50936;51.660;5.616;2023-04-25T09:12:37;63.44;52.54;80.17;;
64545;Laerm;50936;51.660;5.616;2023-04-25T09:15:12;63.02;51.48;82.29;;
64545;Laerm;50936;51.660;5.616;2023-04-25T09:18:07;65.18;52.91;82.91;;
64545;Laerm;50936;51.660;5.616;2023-04-25T09:20:43;62.63;48.13;74.78;;
64545;Laerm;50936;51.660;5.616;2023-04-25T09:23:29;62.75;50.80;77.86;;
64545;Laerm;50936;51.660;5.616;2023-04-25T09:25:56;68.22;54.10;89.09;;
64545;Laerm;50936;51.660;5.616;2023-04-25T09:28:26;67.15;58.02;82.72;;
64545;Laerm;50936;51.660;5.616;2023-04-25T09:30:57;65.87;57.43;86.30;;
64545;Laerm;50936;51.660;5.616;2023-04-25T09:33:45;69.72;57.84;95.30;;
64545;Laerm;50936;51.660;5.616;2023-04-25T09:36:13;66.04;57.06;75.62;;
64545;Laerm;50936;51.660;5.616;2023-04-25T09:39:12;65.32;56.57;76.74;;
64545;Laerm;50936;51.660;5.616;2023-04-25T09:41:47;66.16;55.75;72.67;;
64545;Laerm;50936;51.660;5.616;2023-04-25T09:44:14;66.69;56.82;75.67;;
64545;Laerm;50936;51.660;5.616;2023-04-25T09:46:43;66.35;58.52;72.84;;
64545;Laerm;50936;51.660;5.616;2023-04-25T09:49:16;66.12;53.65;75.37;;
64545;Laerm;50936;51.660;5.616;2023-04-25T09:51:59;65.64;53.03;77.51;;
64545;Laerm;50936;51.660;5.616;2023-04-25T09:54:52;67.93;51.28;84.71;;
64545;Laerm;50936;51.660;5.616;2023-04-25T09:57:25;65.45;52.60;80.14;;
64545;Laerm;50936;51.660;5.616;2023-04-25T09:59:55;65.27;58.25;78.33;;
64545;Laerm;50936;51.660;5.616;2023-04-25T10:02:27;64.31;52.99;72.70;;
64545;Laerm;50936;51.660;5.616;2023-04-25T10:05:06;63.45;53.15;70.07;;
64545;Laerm;50936;51.660;5.616;2023-04-25T10:07:38;62.71;54.32;74.49;;
64545;Laerm;50936;51.660;5.616;2023-04-25T10:10:14;63.49;50.32;78.04;;
64545;Laerm;50936;51.660;5.616;2023-04-25T10:12:42;64.26;54.14;86.01;;
64545;Laerm;50936;51.660;5.616;2023-04-25T10:15:11;63.98;50.67;77.88;;
64545;Laerm;50936;51.660;5.616;2023-04-25T10:17:39;62.40;51.45;75.87;;
64545;Laerm;50936;51.660;5.616;2023-04-25T10:20:07;62.12;51.81;78.66;;
64545;Laerm;50936;51.660;5.616;2023-04-25T10:22:45;60.57;50.83;73.99;;
64545;Laerm;50936;51.660;5.616;2023-04-25T10:25:14;64.35;52.67;79.26;;
64545;Laerm;50936;51.660;5.616;2023-04-25T10:27:42;64.98;54.94;77.59;;
64545;Laerm;50936;51.660;5.616;2023-04-25T10:30:18;61.32;49.72;71.48;;
64545;Laerm;50936;51.660;5.616;2023-04-25T10:32:46;65.74;51.82;78.12;;
64545;Laerm;50936;51.660;5.616;2023-04-25T10:35:25;62.74;51.23;72.38;;
64545;Laerm;50936;51.660;5.616;2023-04-25T10:38:09;64.84;54.79;85.61;;
64545;Laerm;50936;51.660;5.616;2023-04-25T10:40:36;62.46;53.90;73.92;;
64545;Laerm;50936;51.660;5.616;2023-04-25T10:43:35;63.94;53.70;82.53;;
64545;Laerm;50936;51.660;5.616;2023-04-25T10:46:23;65.34;54.11;82.79;;
64545;Laerm;50936;51.660;5.616;2023-04-25T10:51:25;63.77;55.10;80.28;;
64545;Laerm;50936;51.660;5.616;2023-04-25T10:54:05;66.26;53.42;87.13;;
64545;Laerm;50936;51.660;5.616;2023-04-25T10:56:42;68.17;56.46;89.52;;
64545;Laerm;50936;51.660;5.616;2023-04-25T10:59:18;66.03;55.87;81.79;;
64545;Laerm;50936;51.660;5.616;2023-04-25T11:01:47;64.75;52.26;77.64;;
64545;Laerm;50936;51.660;5.616;2023-04-25T11:04:34;63.21;55.05;78.57;;
64545;Laerm;50936;51.660;5.616;2023-04-25T11:07:26;63.33;52.44;79.09;;
64545;Laerm;50936;51.660;5.616;2023-04-25T11:09:55;64.58;54.84;75.17;;
64545;Laerm;50936;51.660;5.616;2023-04-25T11:12:24;64.52;52.16;75.27;;
64545;Laerm;50936;51.660;5.616;2023-04-25T11:15:02;63.75;54.62;71.17;;
64545;Laerm;50936;51.660;5.616;2023-04-25T11:17:30;63.48;51.59;77.90;;
64545;Laerm;50936;51.660;5.616;2023-04-25T11:19:57;61.92;51.30;76.09;;
64545;Laerm;50936;51.660;5.616;2023-04-25T11:22:27;65.39;56.19;79.60;;
64545;Laerm;50936;51.660;5.616;2023-04-25T11:24:54;65.56;55.43;79.77;;
64545;Laerm;50936;51.660;5.616;2023-04-25T11:27:21;63.90;53.10;71.45;;
64545;Laerm;50936;51.660;5.616;2023-04-25T11:29:48;63.14;53.78;74.03;;
64545;Laerm;50936;51.660;5.616;2023-04-25T11:32:17;63.17;50.66;77.42;;
64545;Laerm;50936;51.660;5.616;2023-04-25T11:34:47;63.72;53.77;71.97;;
64545;Laerm;50936;51.660;5.616;2023-04-25T11:37:15;64.13;57.45;73.64;;
64545;Laerm;50936;51.660;5.616;2023-04-25T11:39:45;65.17;54.78;76.90;;
64545;Laerm;50936;51.660;5.616;2023-04-25T11:42:15;65.62;56.22;76.67;;
64545;Laerm;50936;51.660;5.616;2023-04-25T11:44:42;62.62;51.97;70.92;;
64545;Laerm;50936;51.660;5.616;2023-04-25T11:47:10;64.25;53.00;76.88;;
64545;Laerm;50936;51.660;5.616;2023-04-25T11:49:37;70.00;57.77;82.33;;
64545;Laerm;50936;51.660;5.616;2023-04-25T11:52:06;64.40;55.56;71.60;;
64545;Laerm;50936;51.660;5.616;2023-04-25T11:54:37;67.76;57.58;83.45;;
64545;Laerm;50936;51.660;5.616;2023-04-25T11:57:04;70.76;60.26;82.55;;
64545;Laerm;50936;51.660;5.616;2023-04-25T11:59:31;63.78;55.06;76.85;;
64545;Laerm;50936;51.660;5.616;2023-04-25T12:01:58;63.60;55.75;74.60;;
64545;Laerm;50936;51.660;5.616;2023-04-25T12:04:30;64.36;55.16;79.12;;
64545;Laerm;50936;51.660;5.616;2023-04-25T12:06:58;62.07;51.47;74.74;;
64545;Laerm;50936;51.660;5.616;2023-04-25T12:09:31;66.08;55.69;78.08;;
64545;Laerm;50936;51.660;5.616;2023-04-25T12:12:00;62.38;49.21;77.10;;
64545;Laerm;50936;51.660;5.616;2023-04-25T12:14:35;63.82;51.56;74.86;;
64545;Laerm;50936;51.660;5.616;2023-04-25T12:17:04;62.74;54.96;72.27;;
64545;Laerm;50936;51.660;5.616;2023-04-25T12:19:37;62.98;49.89;74.54;;
64545;Laerm;50936;51.660;5.616;2023-04-25T12:22:22;63.48;54.13;84.91;;
64545;Laerm;50936;51.660;5.616;2023-04-25T12:24:49;62.97;54.07;76.57;;
64545;Laerm;50936;51.660;5.616;2023-04-25T12:27:17;63.43;50.98;75.44;;
64545;Laerm;50936;51.660;5.616;2023-04-25T12:29:54;68.31;53.01;84.60;;
64545;Laerm;50936;51.660;5.616;2023-04-25T12:32:22;64.14;50.49;81.69;;
64545;Laerm;50936;51.660;5.616;2023-04-25T12:34:49;64.49;54.41;84.33;;
64545;Laerm;50936;51.660;5.616;2023-04-25T12:37:17;65.94;55.34;86.71;;
64545;Laerm;50936;51.660;5.616;2023-04-25T12:39:44;64.27;51.67;87.80;;
64545;Laerm;50936;51.660;5.616;2023-04-25T12:42:11;65.94;53.55;87.80;;
64545;Laerm;50936;51.660;5.616;2023-04-25T12:44:40;70.87;50.05;91.39;;
64545;Laerm;50936;51.660;5.616;2023-04-25T12:47:08;65.20;54.33;82.52;;
64545;Laerm;50936;51.660;5.616;2023-04-25T12:49:35;65.78;56.16;84.42;;
64545;Laerm;50936;51.660;5.616;2023-04-25T12:52:02;63.81;53.29;82.23;;
64545;Laerm;50936;51.660;5.616;2023-04-25T12:54:29;70.40;56.10;85.99;;
64545;Laerm;50936;51.660;5.616;2023-04-25T12:56:57;66.82;56.60;83.42;;
64545;Laerm;50936;51.660;5.616;2023-04-25T12:59:24;64.18;55.73;85.92;;
64545;Laerm;50936;51.660;5.616;2023-04-25T13:01:51;63.09;53.49;76.60;;
64545;Laerm;50936;51.660;5.616;2023-04-25T13:04:18;63.53;53.70;79.21;;
64545;Laerm;50936;51.660;5.616;2023-04-25T13:06:47;63.32;52.96;76.16;;
64545;Laerm;50936;51.660;5.616;2023-04-25T13:09:15;64.89;54.24;81.79;;
64545;Laerm;50936;51.660;5.616;2023-04-25T13:11:42;63.27;54.21;71.59;;
64545;Laerm;50936;51.660;5.616;2023-04-25T13:14:09;65.31;55.39;80.27;;
64545;Laerm;50936;51.660;5.616;2023-04-25T13:16:36;63.33;53.77;73.18;;
64545;Laerm;50936;51.660;5.616;2023-04-25T13:19:03;65.81;53.16;89.72;;
64545;Laerm;50936;51.660;5.616;2023-04-25T13:21:30;64.15;53.35;81.06;;
64545;Laerm;50936;51.660;5.616;2023-04-25T13:23:59;65.98;54.25;79.64;;
64545;Laerm;50936;51.660;5.616;2023-04-25T13:26:26;63.97;55.34;75.14;;
64545;Laerm;50936;51.660;5.616;2023-04-25T13:28:53;64.41;55.23;74.54;;
64545;Laerm;50936;51.660;5.616;2023-04-25T13:31:19;64.68;56.23;82.63;;
64545;Laerm;50936;51.660;5.616;2023-04-25T13:33:47;64.43;54.98;75.48;;
64545;Laerm;50936;51.660;5.616;2023-04-25T13:36:15;65.44;52.91;80.53;;
64545;Laerm;50936;51.660;5.616;2023-04-25T13:38:41;63.45;52.04;76.83;;
64545;Laerm;50936;51.660;5.616;2023-04-25T13:41:10;63.88;53.91;71.44;;
64545;Laerm;50936;51.660;5.616;2023-04-25T13:43:42;66.18;57.62;75.89;;
64545;Laerm;50936;51.660;5.616;2023-04-25T13:46:09;62.02;50.34;69.84;;
64545;Laerm;50936;51.660;5.616;2023-04-25T13:48:56;64.40;56.08;76.28;;
64545;Laerm;50936;51.660;5.616;2023-04-25T13:51:35;64.31;55.41;83.98;;
64545;Laerm;50936;51.660;5.616;2023-04-25T13:54:03;62.26;51.97;78.18;;
64545;Laerm;50936;51.660;5.616;2023-04-25T13:56:30;64.29;57.24;85.22;;
64545;Laerm;50936;51.660;5.616;2023-04-25T13:58:56;67.39;54.93;83.12;;
64545;Laerm;50936;51.660;5.616;2023-04-25T14:01:23;65.63;56.38;78.17;;
64545;Laerm;50936;51.660;5.616;2023-04-25T14:03:50;65.32;53.86;79.74;;
64545;Laerm;50936;51.660;5.616;2023-04-25T14:06:18;64.87;50.74;81.10;;
64545;Laerm;50936;51.660;5.616;2023-04-25T14:08:53;62.63;55.71;75.04;;